Time;durP1;ratioP1;P1;durP2;ratioP2;P2;SDS_P1;SDS_P2;PMS_P1;PMS_P2;Temp;Humidity;BMP_temperature;BMP_pressure;BME280_temperature;BME280_humidity;BME280_pressure;Samples;Min_cycle;Max_cycle;Signal;HPM_P1;HPM_P2
2021/07/12 00:02:22;;;;;;;4.85;4.35;;;13.70;99.90;;;;;;5033044;28;20632;-75
2021/07/12 00:04:47;;;;;;;7.13;4.00;;;13.70;99.90;;;;;;5032281;28;20069;-76
2021/07/12 00:07:13;;;;;;;11.35;4.47;;;13.70;99.90;;;;;;5031668;28;20400;-77
2021/07/12 00:09:38;;;;;;;8.98;4.82;;;13.60;99.90;;;;;;5031466;28;20025;-76
2021/07/12 00:12:04;;;;;;;7.85;4.60;;;13.50;99.90;;;;;;5032888;28;20079;-76
2021/07/12 00:14:30;;;;;;;10.25;5.63;;;13.50;99.90;;;;;;5033005;28;20445;-77
2021/07/12 00:16:55;;;;;;;8.93;5.90;;;13.40;99.90;;;;;;5032645;28;20056;-77
2021/07/12 00:19:21;;;;;;;10.50;5.75;;;13.50;99.90;;;;;;5031463;28;20100;-76
2021/07/12 00:21:46;;;;;;;9.52;6.20;;;13.40;99.90;;;;;;5032796;28;20029;-77
2021/07/12 00:24:12;;;;;;;7.85;5.82;;;13.30;99.90;;;;;;5032894;28;20032;-76
2021/07/12 00:26:38;;;;;;;5.82;5.32;;;13.00;99.90;;;;;;5031150;28;20017;-76
2021/07/12 00:29:03;;;;;;;9.50;5.15;;;13.00;99.90;;;;;;5032598;28;20033;-76
2021/07/12 00:31:29;;;;;;;8.20;5.45;;;13.20;99.90;;;;;;5031139;28;20424;-76
2021/07/12 00:33:54;;;;;;;5.75;4.85;;;13.20;99.90;;;;;;5032577;28;20026;-75
2021/07/12 00:36:20;;;;;;;6.35;4.68;;;13.20;99.90;;;;;;5032230;28;20030;-75
2021/07/12 00:38:45;;;;;;;6.40;4.32;;;13.20;99.90;;;;;;5032371;28;20032;-75
2021/07/12 00:41:11;;;;;;;6.25;4.82;;;13.30;99.90;;;;;;5031175;28;20018;-75
2021/07/12 00:43:38;;;;;;;8.27;4.90;;;13.20;99.90;;;;;;5030915;28;20021;-75
2021/07/12 00:46:03;;;;;;;11.82;6.78;;;13.10;99.90;;;;;;5032382;28;20527;-75
2021/07/12 00:48:33;;;;;;;6.88;4.68;;;12.80;99.90;;;;;;5032184;28;20025;-75
2021/07/12 00:50:58;;;;;;;5.68;5.03;;;12.90;99.90;;;;;;5032194;28;20036;-75
2021/07/12 00:53:24;;;;;;;6.32;4.53;;;13.00;99.90;;;;;;5032092;28;20468;-75
2021/07/12 00:55:50;;;;;;;8.75;4.78;;;13.00;99.90;;;;;;5032012;28;20487;-75
2021/07/12 00:58:19;;;;;;;6.82;4.85;;;13.10;99.90;;;;;;5031920;28;20029;-75
2021/07/12 01:00:47;;;;;;;6.72;5.72;;;13.20;99.90;;;;;;5031874;28;20438;-75
2021/07/12 01:03:13;;;;;;;6.85;5.65;;;13.20;99.90;;;;;;5031895;28;20022;-75
2021/07/12 01:05:41;;;;;;;9.82;5.68;;;13.00;99.90;;;;;;5031821;28;20361;-75
2021/07/12 01:08:07;;;;;;;7.13;5.07;;;13.00;99.90;;;;;;5031840;28;20033;-75
2021/07/12 01:10:33;;;;;;;9.07;5.60;;;13.10;99.90;;;;;;5030602;28;20407;-75
2021/07/12 01:13:18;;;;;;;12.40;7.20;;;13.30;99.90;;;;;;5031712;28;20082;-76
2021/07/12 01:16:00;;;;;;;11.45;5.80;;;13.30;99.90;;;;;;5030960;28;20076;-76
2021/07/12 01:18:41;;;;;;;8.60;5.30;;;13.10;99.90;;;;;;5031836;28;20028;-75
2021/07/12 01:21:39;;;;;;;14.73;6.15;;;13.20;99.90;;;;;;5030602;28;20117;-76
2021/07/12 01:24:41;;;;;;;8.20;6.28;;;13.40;99.90;;;;;;5031746;28;20437;-75
2021/07/12 01:27:36;;;;;;;11.55;7.15;;;13.50;99.90;;;;;;5030234;28;20480;-75
2021/07/12 01:30:16;;;;;;;15.30;6.32;;;13.10;99.90;;;;;;5031695;28;20040;-76
2021/07/12 01:33:09;;;;;;;12.05;6.13;;;13.00;99.90;;;;;;5031591;28;20033;-75
2021/07/12 01:35:59;;;;;;;8.30;5.15;;;13.10;99.90;;;;;;5031414;28;20044;-75
2021/07/12 01:38:46;;;;;;;18.33;6.72;;;13.10;99.90;;;;;;5031522;28;20033;-75
2021/07/12 01:41:33;;;;;;;9.70;6.25;;;13.20;99.90;;;;;;5031543;28;20040;-75
2021/07/12 01:44:12;;;;;;;10.90;7.00;;;13.20;99.90;;;;;;5030510;28;20022;-75
2021/07/12 01:46:56;;;;;;;8.60;6.53;;;13.00;99.90;;;;;;5031405;28;20029;-75
2021/07/12 01:49:34;;;;;;;13.63;7.10;;;12.90;99.90;;;;;;5031598;28;20017;-75
2021/07/12 01:52:34;;;;;;;16.80;6.88;;;12.90;99.90;;;;;;5030191;28;20028;-76
2021/07/12 01:55:22;;;;;;;10.48;5.45;;;12.90;99.90;;;;;;5031157;28;20055;-76
2021/07/12 01:58:19;;;;;;;13.95;5.88;;;12.90;99.90;;;;;;5030017;28;20398;-76
2021/07/12 02:00:46;;;;;;;11.18;5.53;;;12.90;99.90;;;;;;5031450;28;20022;-76
2021/07/12 02:03:15;;;;;;;12.93;6.82;;;12.90;99.90;;;;;;5031142;28;20041;-76
2021/07/12 02:05:41;;;;;;;12.65;6.20;;;12.80;99.90;;;;;;5031184;28;20387;-76
2021/07/12 02:08:09;;;;;;;11.13;6.30;;;12.60;99.90;;;;;;5030057;28;20037;-75
2021/07/12 02:10:36;;;;;;;8.52;5.93;;;12.70;99.90;;;;;;5031375;28;20026;-76
2021/07/12 02:13:02;;;;;;;12.95;7.32;;;12.70;99.90;;;;;;5031232;28;20037;-76
2021/07/12 02:15:28;;;;;;;15.98;8.15;;;12.60;99.90;;;;;;5030966;28;20029;-76
2021/07/12 02:17:55;;;;;;;9.63;7.40;;;12.30;99.90;;;;;;5030046;28;20086;-77
2021/07/12 02:20:24;;;;;;;10.05;7.82;;;12.10;99.90;;;;;;5031216;28;20053;-76
2021/07/12 02:22:52;;;;;;;9.80;5.93;;;12.30;99.90;;;;;;5031231;28;20134;-76
2021/07/12 02:25:18;;;;;;;9.02;5.75;;;12.30;99.90;;;;;;5030860;28;20025;-76
2021/07/12 02:27:44;;;;;;;7.65;4.72;;;12.40;99.90;;;;;;5032407;28;20033;-77
2021/07/12 02:30:11;;;;;;;8.10;5.93;;;12.50;99.90;;;;;;5034736;28;20388;-77
2021/07/12 02:32:38;;;;;;;8.68;5.78;;;12.50;99.90;;;;;;5034662;28;20211;-76
2021/07/12 02:35:10;;;;;;;7.30;5.47;;;12.50;99.90;;;;;;5033274;28;20029;-75
2021/07/12 02:37:42;;;;;;;7.45;5.40;;;12.50;99.90;;;;;;5034660;28;20517;-76
2021/07/12 02:40:10;;;;;;;7.00;5.63;;;12.60;99.90;;;;;;5034544;28;20023;-75
2021/07/12 02:42:39;;;;;;;7.35;5.05;;;12.60;99.90;;;;;;5033201;28;20037;-76
2021/07/12 02:45:07;;;;;;;11.48;6.10;;;12.60;99.90;;;;;;5034302;28;20140;-76
2021/07/12 02:47:37;;;;;;;9.75;6.38;;;12.60;99.90;;;;;;5033208;28;20029;-74
2021/07/12 02:50:05;;;;;;;7.70;5.78;;;12.50;99.90;;;;;;5034435;28;20059;-75
2021/07/12 02:52:46;;;;;;;8.27;6.75;;;12.50;99.90;;;;;;5034371;28;20064;-74
2021/07/12 02:55:12;;;;;;;7.38;6.43;;;12.50;99.90;;;;;;5032780;28;20041;-75
2021/07/12 02:57:38;;;;;;;9.82;7.55;;;12.20;99.90;;;;;;5032927;28;20025;-75
2021/07/12 03:00:06;;;;;;;9.77;8.23;;;12.20;99.90;;;;;;5033092;28;20018;-75
2021/07/12 03:02:32;;;;;;;9.90;6.60;;;11.90;99.90;;;;;;5034074;28;20025;-75
2021/07/12 03:04:57;;;;;;;8.25;6.53;;;12.00;99.90;;;;;;5033888;28;20044;-75
2021/07/12 03:07:33;;;;;;;7.40;5.53;;;12.20;99.90;;;;;;5032737;28;20033;-75
2021/07/12 03:10:01;;;;;;;;;;;12.30;99.90;;;;;;5034450;28;20403;-76
2021/07/12 03:12:37;;;;;;;8.82;5.05;;;12.30;99.90;;;;;;5032670;28;19915;-76
2021/07/12 03:15:06;;;;;;;9.93;7.85;;;12.30;99.90;;;;;;5033960;28;20022;-75
2021/07/12 03:17:35;;;;;;;230.77;16.38;;;12.40;99.90;;;;;;5034199;28;20026;-76
2021/07/12 03:20:03;;;;;;;69.40;9.43;;;12.20;99.90;;;;;;5034581;28;20379;-76
2021/07/12 03:22:29;;;;;;;93.82;10.80;;;12.30;99.90;;;;;;5033705;28;20033;-76
2021/07/12 03:24:57;;;;;;;53.65;9.05;;;12.40;99.90;;;;;;5033589;28;20051;-76
2021/07/12 03:27:23;;;;;;;210.57;13.93;;;12.40;99.90;;;;;;5033688;28;20104;-75
2021/07/12 03:29:50;;;;;;;118.20;11.35;;;12.30;99.90;;;;;;5033797;28;20033;-74
2021/07/12 03:32:22;;;;;;;84.00;8.52;;;12.30;99.90;;;;;;5033569;28;20048;-74
2021/07/12 03:34:50;;;;;;;26.55;7.35;;;12.30;99.90;;;;;;5033376;28;20029;-74
2021/07/12 03:37:18;;;;;;;55.75;8.15;;;12.30;99.90;;;;;;5032206;28;20495;-74
2021/07/12 03:39:44;;;;;;;20.88;6.03;;;12.40;99.90;;;;;;5032776;28;20033;-75
2021/07/12 03:42:11;;;;;;;14.18;6.90;;;12.20;99.90;;;;;;5033513;28;20453;-74
2021/07/12 03:44:39;;;;;;;11.07;6.88;;;12.10;99.90;;;;;;5033249;28;20029;-74
2021/07/12 03:47:05;;;;;;;13.40;7.30;;;12.20;99.90;;;;;;5033851;28;20029;-74
2021/07/12 03:49:31;;;;;;;7.85;6.07;;;12.20;99.90;;;;;;5033315;28;20025;-76
2021/07/12 03:51:57;;;;;;;6.35;5.70;;;12.20;99.90;;;;;;5033290;28;20439;-76
2021/07/12 03:54:22;;;;;;;10.07;6.57;;;12.20;99.90;;;;;;5032989;28;20095;-76
2021/07/12 03:56:48;;;;;;;10.82;6.80;;;12.10;99.90;;;;;;5033190;28;20491;-76
2021/07/12 03:59:13;;;;;;;12.75;6.35;;;12.20;99.90;;;;;;5033148;28;20048;-76
2021/07/12 04:01:39;;;;;;;12.32;5.95;;;12.30;99.90;;;;;;5033154;28;20430;-76
2021/07/12 04:04:04;;;;;;;9.18;6.65;;;12.30;99.90;;;;;;5031596;28;20064;-76
2021/07/12 04:06:30;;;;;;;10.45;7.35;;;12.30;99.90;;;;;;5032809;28;20025;-76
2021/07/12 04:08:57;;;;;;;12.45;7.07;;;12.20;99.90;;;;;;5029173;28;20105;-76
2021/07/12 04:11:29;;;;;;;13.00;7.47;;;12.30;99.90;;;;;;5019898;28;20381;-76
2021/07/12 04:13:55;;;;;;;11.48;6.75;;;12.50;99.90;;;;;;5031901;28;20041;-76
2021/07/12 04:16:20;;;;;;;9.45;5.97;;;12.60;99.90;;;;;;5032775;28;20026;-76
2021/07/12 04:18:46;;;;;;;9.63;7.10;;;12.70;99.90;;;;;;5031726;28;20383;-76
2021/07/12 04:21:13;;;;;;;10.52;7.80;;;12.80;99.90;;;;;;5033132;28;20514;-76
2021/07/12 04:23:39;;;;;;;13.38;8.05;;;12.70;99.90;;;;;;5031557;28;20083;-76
2021/07/12 04:26:05;;;;;;;10.60;7.60;;;12.60;99.90;;;;;;5032601;28;20029;-76
2021/07/12 04:28:30;;;;;;;11.70;6.25;;;12.70;99.90;;;;;;5031561;28;20071;-76
2021/07/12 04:30:56;;;;;;;9.57;6.60;;;12.90;99.90;;;;;;5033392;28;20108;-77
2021/07/12 04:33:22;;;;;;;11.70;7.63;;;13.00;99.90;;;;;;5031406;28;20430;-76
2021/07/12 04:35:49;;;;;;;10.98;7.45;;;13.00;99.90;;;;;;5031175;28;20708;-76
2021/07/12 04:38:16;;;;;;;11.52;6.25;;;13.00;99.90;;;;;;5032489;28;20022;-76
2021/07/12 04:40:41;;;;;;;12.82;8.32;;;13.10;99.90;;;;;;5032675;28;20108;-76
2021/07/12 04:43:07;;;;;;;11.20;7.63;;;13.10;99.90;;;;;;5032615;28;20561;-76
2021/07/12 04:45:33;;;;;;;8.43;7.45;;;13.10;99.90;;;;;;5032335;28;20092;-75
2021/07/12 04:47:58;;;;;;;11.57;7.50;;;13.10;99.90;;;;;;5032412;28;20095;-76
2021/07/12 04:50:24;;;;;;;10.93;7.30;;;13.00;99.90;;;;;;5032480;28;20041;-76
2021/07/12 04:52:50;;;;;;;9.77;7.00;;;12.90;99.90;;;;;;5032279;28;20075;-76
2021/07/12 04:55:15;;;;;;;8.20;6.15;;;13.00;99.90;;;;;;5032186;28;20029;-76
2021/07/12 04:57:41;;;;;;;7.32;6.13;;;13.30;99.90;;;;;;5032173;28;20061;-75
2021/07/12 05:00:08;;;;;;;7.32;5.60;;;13.50;99.90;;;;;;5032282;28;20030;-75
2021/07/12 05:02:34;;;;;;;10.50;5.95;;;13.60;99.90;;;;;;5032209;28;20026;-76
2021/07/12 05:04:59;;;;;;;7.95;5.30;;;13.60;99.90;;;;;;5031928;28;20068;-75
2021/07/12 05:07:25;;;;;;;6.82;5.38;;;13.70;99.90;;;;;;5030738;28;20064;-76
2021/07/12 05:09:51;;;;;;;8.52;5.63;;;13.90;99.90;;;;;;5019700;28;20061;-75
2021/07/12 05:12:19;;;;;;;10.00;5.20;;;13.90;99.90;;;;;;5026485;28;20491;-76
2021/07/12 05:14:45;;;;;;;10.55;5.35;;;14.20;99.90;;;;;;5031902;28;20021;-76
2021/07/12 05:17:14;;;;;;;8.30;4.93;;;14.30;99.90;;;;;;5031496;28;20028;-77
2021/07/12 05:19:40;;;;;;;9.88;5.75;;;14.40;99.90;;;;;;5032134;28;20022;-76
2021/07/12 05:22:06;;;;;;;7.60;5.95;;;14.40;99.90;;;;;;5031944;28;20036;-77
2021/07/12 05:24:31;;;;;;;7.13;5.72;;;14.30;99.90;;;;;;5032415;28;20502;-76
2021/07/12 05:26:57;;;;;;;9.80;6.13;;;14.20;99.90;;;;;;5032630;28;20088;-76
2021/07/12 05:29:23;;;;;;;9.35;6.20;;;14.10;99.90;;;;;;5031833;28;20026;-75
2021/07/12 05:31:49;;;;;;;8.80;6.18;;;14.10;99.90;;;;;;5031733;28;20406;-75
2021/07/12 05:34:14;;;;;;;8.93;6.18;;;14.10;99.90;;;;;;5032138;28;20030;-75
2021/07/12 05:36:40;;;;;;;8.95;6.55;;;14.10;99.90;;;;;;5031440;28;20440;-77
2021/07/12 05:39:06;;;;;;;9.45;7.03;;;14.10;99.90;;;;;;5031839;28;20096;-75
2021/07/12 05:41:31;;;;;;;10.35;6.45;;;14.30;99.90;;;;;;5031840;28;20523;-76
2021/07/12 05:43:57;;;;;;;8.25;6.72;;;14.30;99.90;;;;;;5031776;28;20032;-76
2021/07/12 05:46:23;;;;;;;7.38;6.60;;;14.20;99.90;;;;;;5031702;28;20036;-76
2021/07/12 05:48:49;;;;;;;9.30;6.25;;;14.40;99.90;;;;;;5030481;28;20036;-76
2021/07/12 05:51:15;;;;;;;10.02;6.65;;;14.50;99.90;;;;;;5030310;28;20112;-76
2021/07/12 05:53:40;;;;;;;7.43;5.82;;;14.50;99.90;;;;;;5031604;28;20037;-76
2021/07/12 05:56:06;;;;;;;8.68;6.97;;;14.50;99.90;;;;;;5030173;28;20029;-76
2021/07/12 05:58:32;;;;;;;8.88;5.97;;;14.70;99.90;;;;;;5030329;28;20022;-76
2021/07/12 06:00:57;;;;;;;10.60;4.90;;;14.80;99.90;;;;;;5031525;28;20048;-76
2021/07/12 06:03:23;;;;;;;6.28;4.70;;;14.80;99.90;;;;;;5034014;28;20029;-76
2021/07/12 06:05:49;;;;;;;5.10;4.50;;;15.10;99.90;;;;;;5035466;28;20091;-75
2021/07/12 06:08:15;;;;;;;8.75;3.90;;;15.20;99.90;;;;;;5035521;28;20021;-76
2021/07/12 06:10:40;;;;;;;8.27;4.15;;;15.40;99.90;;;;;;5034091;28;20036;-76
2021/07/12 06:13:06;;;;;;;7.75;3.50;;;15.50;99.90;;;;;;5034086;28;20033;-76
2021/07/12 06:15:31;;;;;;;6.03;4.00;;;15.70;99.90;;;;;;5035299;28;20022;-75
2021/07/12 06:17:57;;;;;;;10.65;3.97;;;15.90;99.90;;;;;;5035238;28;20080;-75
2021/07/12 06:20:23;;;;;;;4.18;3.75;;;15.90;99.90;;;;;;5033903;28;20026;-75
2021/07/12 06:22:49;;;;;;;4.75;3.55;;;16.00;99.90;;;;;;5035182;28;20571;-75
2021/07/12 06:25:17;;;;;;;5.68;4.30;;;16.10;99.90;;;;;;5034815;28;20030;-74
2021/07/12 06:27:44;;;;;;;5.97;4.63;;;16.20;99.90;;;;;;5035031;28;20084;-75
2021/07/12 06:30:10;;;;;;;5.35;3.65;;;16.20;99.90;;;;;;5035005;28;20472;-76
2021/07/12 06:32:36;;;;;;;7.20;3.90;;;16.30;99.90;;;;;;5035080;28;20029;-76
2021/07/12 06:35:02;;;;;;;5.20;4.10;;;16.40;99.90;;;;;;5034825;28;20029;-77
2021/07/12 06:37:28;;;;;;;3.53;3.22;;;16.60;99.90;;;;;;5035165;28;20017;-75
2021/07/12 06:39:53;;;;;;;5.45;2.90;;;16.70;99.90;;;;;;5034199;28;20109;-76
2021/07/12 06:42:19;;;;;;;4.25;3.17;;;16.70;99.90;;;;;;5034957;28;20461;-76
2021/07/12 06:44:44;;;;;;;4.60;3.75;;;16.70;99.90;;;;;;5033398;28;20036;-76
2021/07/12 06:47:10;;;;;;;5.70;3.53;;;16.70;99.90;;;;;;5035567;28;20125;-75
2021/07/12 06:49:35;;;;;;;138.13;35.60;;;16.70;99.90;;;;;;5034694;28;20267;-76
2021/07/12 06:52:01;;;;;;;7.90;5.00;;;16.90;99.90;;;;;;5034570;28;20036;-75
2021/07/12 06:54:27;;;;;;;5.78;4.47;;;16.90;99.90;;;;;;5034566;28;20068;-73
2021/07/12 06:56:52;;;;;;;6.57;4.72;;;16.90;99.90;;;;;;5034467;28;20026;-73
2021/07/12 06:59:18;;;;;;;6.18;4.25;;;17.00;99.90;;;;;;5034565;28;20029;-73
2021/07/12 07:01:44;;;;;;;7.20;4.80;;;17.00;99.90;;;;;;5033181;28;20022;-73
2021/07/12 07:04:11;;;;;;;8.00;5.63;;;16.80;99.90;;;;;;5034172;28;20033;-76
2021/07/12 07:06:37;;;;;;;6.70;4.75;;;17.00;99.90;;;;;;5020947;28;20024;-72
2021/07/12 07:09:03;;;;;;;4.95;4.45;;;17.40;99.90;;;;;;5033026;28;20104;-76
2021/07/12 07:11:31;;;;;;;5.75;4.20;;;17.40;99.90;;;;;;5034257;28;20032;-75
2021/07/12 07:13:57;;;;;;;5.53;5.03;;;17.60;99.90;;;;;;5033072;28;20022;-76
2021/07/12 07:16:22;;;;;;;5.07;4.05;;;17.70;99.90;;;;;;5034210;28;20080;-77
2021/07/12 07:18:48;;;;;;;6.15;3.75;;;17.70;99.90;;;;;;5034233;28;20032;-76
2021/07/12 07:21:14;;;;;;;4.63;3.60;;;17.60;99.90;;;;;;5034462;28;20402;-77
2021/07/12 07:23:39;;;;;;;4.60;3.45;;;17.80;99.90;;;;;;5034236;28;20028;-76
2021/07/12 07:26:07;;;;;;;6.03;3.95;;;18.20;99.90;;;;;;5038257;28;20025;-77
2021/07/12 07:28:32;;;;;;;5.63;3.72;;;18.40;99.90;;;;;;5034094;28;20634;-76
2021/07/12 07:30:58;;;;;;;4.15;3.75;;;18.00;99.90;;;;;;5033959;28;20032;-77
2021/07/12 07:33:26;;;;;;;3.28;3.00;;;18.20;99.90;;;;;;5033795;28;20068;-76
2021/07/12 07:35:52;;;;;;;3.28;3.05;;;18.40;99.90;;;;;;5033710;28;20021;-76
2021/07/12 07:38:17;;;;;;;3.30;2.70;;;18.60;99.90;;;;;;5032419;28;20017;-76
2021/07/12 07:40:43;;;;;;;3.22;2.92;;;18.90;99.90;;;;;;5033764;28;20029;-76
2021/07/12 07:43:09;;;;;;;2.92;2.72;;;19.00;99.90;;;;;;5032335;28;20022;-76
2021/07/12 07:45:35;;;;;;;3.47;3.20;;;19.00;99.90;;;;;;5033342;28;20021;-76
2021/07/12 07:48:01;;;;;;;2.83;2.63;;;19.10;99.90;;;;;;5033433;28;20419;-77
2021/07/12 07:50:27;;;;;;;3.30;2.80;;;19.30;99.90;;;;;;5034013;28;20387;-78
2021/07/12 07:52:53;;;;;;;13.82;3.60;;;19.30;99.90;;;;;;5032302;28;20025;-77
2021/07/12 07:55:19;;;;;;;3.40;3.10;;;19.30;99.90;;;;;;5033214;28;20036;-77
2021/07/12 07:57:45;;;;;;;3.40;3.10;;;19.10;99.90;;;;;;5032132;28;20159;-76
2021/07/12 08:00:14;;;;;;;3.63;3.08;;;18.70;99.90;;;;;;5033371;28;20053;-76
2021/07/12 08:02:40;;;;;;;5.32;3.10;;;18.60;99.90;;;;;;5031957;28;20030;-76
2021/07/12 08:05:06;;;;;;;4.28;3.40;;;18.70;99.90;;;;;;5032940;28;20064;-76
2021/07/12 08:07:33;;;;;;;4.32;3.60;;;18.70;99.90;;;;;;5031752;28;20107;-76
2021/07/12 08:09:59;;;;;;;3.95;3.55;;;18.90;99.90;;;;;;5029367;28;20018;-76
2021/07/12 08:12:24;;;;;;;4.15;3.45;;;19.10;99.90;;;;;;5031635;28;20044;-76
2021/07/12 08:14:50;;;;;;;3.53;3.22;;;19.30;99.90;;;;;;5031550;28;20041;-76
2021/07/12 08:17:16;;;;;;;4.38;3.05;;;19.60;99.90;;;;;;5032682;28;20071;-76
2021/07/12 08:19:41;;;;;;;4.82;3.45;;;19.70;99.90;;;;;;5031732;28;20030;-76
2021/07/12 08:22:07;;;;;;;3.13;2.85;;;19.60;99.90;;;;;;5032796;28;20037;-77
2021/07/12 08:24:33;;;;;;;2.90;2.70;;;19.90;99.90;;;;;;5032327;28;20030;-77
2021/07/12 08:27:01;;;;;;;2.92;2.63;;;20.00;99.90;;;;;;5032483;28;20040;-76
2021/07/12 08:29:27;;;;;;;4.05;3.20;;;20.20;99.90;;;;;;5030461;28;20483;-76
2021/07/12 08:31:52;;;;;;;3.72;2.85;;;20.30;99.90;;;;;;5030378;28;20033;-76
2021/07/12 08:34:19;;;;;;;2.88;2.67;;;20.60;99.90;;;;;;5032586;28;20458;-76
2021/07/12 08:36:44;;;;;;;2.90;2.70;;;21.00;99.90;;;;;;5032373;28;20025;-76
2021/07/12 08:39:10;;;;;;;3.00;2.80;;;21.10;99.90;;;;;;5032737;28;20022;-75
2021/07/12 08:41:37;;;;;;;3.17;2.88;;;21.00;99.90;;;;;;5032585;28;20075;-75
2021/07/12 08:44:03;;;;;;;4.00;2.88;;;21.50;99.90;;;;;;5031289;28;20121;-76
2021/07/12 08:46:28;;;;;;;4.30;3.00;;;21.80;99.90;;;;;;5030946;28;20116;-76
2021/07/12 08:48:54;;;;;;;3.85;3.33;;;22.00;99.90;;;;;;5031212;28;20088;-76
2021/07/12 08:51:19;;;;;;;3.50;3.20;;;21.50;99.90;;;;;;5032272;28;20033;-76
2021/07/12 08:53:47;;;;;;;3.95;3.00;;;20.80;99.90;;;;;;5032360;28;20063;-76
2021/07/12 08:56:13;;;;;;;18.20;8.50;;;20.60;99.90;;;;;;5032029;28;20017;-76
2021/07/12 08:58:39;;;;;;;23.63;11.02;;;20.60;99.90;;;;;;5031029;28;20021;-76
2021/07/12 09:01:07;;;;;;;8.85;4.75;;;20.90;99.90;;;;;;5032159;28;20083;-76
2021/07/12 09:03:37;;;;;;;3.47;3.17;;;20.70;99.90;;;;;;5032076;28;20033;-76
2021/07/12 09:06:09;;;;;;;5.05;3.38;;;20.70;99.90;;;;;;5031909;28;20060;-76
2021/07/12 09:08:54;;;;;;;3.75;3.28;;;20.80;99.90;;;;;;5032812;28;20610;-76
2021/07/12 09:11:36;;;;;;;4.70;3.20;;;21.10;99.90;;;;;;5032048;28;20511;-77
2021/07/12 09:14:07;;;;;;;3.58;2.75;;;21.40;99.90;;;;;;5032024;28;20091;-76
2021/07/12 09:16:42;;;;;;;2.92;2.60;;;21.60;99.90;;;;;;5030380;28;20024;-76
2021/07/12 09:19:38;;;;;;;2.92;2.70;;;22.10;99.90;;;;;;5031173;28;20022;-77
2021/07/12 09:22:09;;;;;;;3.88;3.22;;;22.40;99.90;;;;;;5031126;28;20120;-75
2021/07/12 09:24:36;;;;;;;3.28;2.97;;;22.30;99.90;;;;;;5030690;28;20104;-77
2021/07/12 09:27:04;;;;;;;3.83;3.50;;;21.90;99.90;;;;;;5031917;28;20056;-76
2021/07/12 09:29:44;;;;;;;2.95;2.67;;;21.80;99.90;;;;;;5030681;28;20124;-75
2021/07/12 09:32:15;;;;;;;3.00;2.67;;;21.90;99.90;;;;;;5031950;28;20034;-76
2021/07/12 09:34:42;;;;;;;4.53;3.15;;;21.90;99.90;;;;;;5031627;28;20022;-76
2021/07/12 09:37:10;;;;;;;2.97;2.78;;;21.80;99.90;;;;;;5031034;28;20017;-76
2021/07/12 09:39:41;;;;;;;3.05;2.75;;;21.90;99.90;;;;;;5031641;28;20026;-77
2021/07/12 09:42:09;;;;;;;3.13;2.90;;;21.60;99.90;;;;;;5017600;28;20134;-76
2021/07/12 09:44:38;;;;;;;3.22;2.92;;;21.60;99.90;;;;;;5031371;28;20056;-76
2021/07/12 09:47:07;;;;;;;3.15;2.95;;;21.90;99.90;;;;;;5031690;28;20388;-76
2021/07/12 09:49:33;;;;;;;2.67;2.47;;;22.20;99.90;;;;;;5031550;28;20057;-77
2021/07/12 09:52:02;;;;;;;3.42;3.13;;;22.40;99.90;;;;;;5031681;28;20057;-76
2021/07/12 09:54:37;;;;;;;4.28;3.03;;;22.80;99.90;;;;;;5031141;28;20030;-76
2021/07/12 09:57:28;;;;;;;4.97;3.60;;;22.70;99.90;;;;;;5031623;28;20029;-76
2021/07/12 10:00:14;;;;;;;3.40;3.20;;;22.40;99.90;;;;;;5031563;28;20472;-76
2021/07/12 10:02:40;;;;;;;4.80;3.03;;;22.20;99.90;;;;;;5031591;28;20025;-76
2021/07/12 10:05:07;;;;;;;3.13;2.92;;;22.30;99.90;;;;;;5029915;28;20037;-76
2021/07/12 10:07:34;;;;;;;4.07;3.28;;;22.50;99.90;;;;;;5031310;28;20475;-76
2021/07/12 10:10:02;;;;;;;4.10;3.10;;;22.50;99.90;;;;;;5034659;28;20040;-76
2021/07/12 10:12:28;;;;;;;3.67;3.38;;;22.40;99.90;;;;;;5031182;28;20542;-76
2021/07/12 10:14:55;;;;;;;4.65;3.22;;;22.10;99.90;;;;;;5031555;28;20025;-76
2021/07/12 10:17:21;;;;;;;5.95;3.50;;;22.80;99.90;;;;;;5031315;28;20021;-76
2021/07/12 10:19:47;;;;;;;3.70;3.38;;;23.30;99.90;;;;;;5031452;28;20017;-76
2021/07/12 10:22:14;;;;;;;3.45;3.15;;;23.30;99.90;;;;;;5031300;28;20036;-76
2021/07/12 10:24:45;;;;;;;3.55;3.30;;;23.10;99.90;;;;;;5031004;28;20029;-76
2021/07/12 10:27:23;;;;;;;3.65;3.00;;;23.00;99.90;;;;;;5031030;28;20032;-76
2021/07/12 10:29:50;;;;;;;3.05;2.75;;;23.10;99.90;;;;;;5029988;28;20497;-76
2021/07/12 10:32:18;;;;;;;3.90;3.38;;;23.50;99.90;;;;;;5031088;28;20108;-77
2021/07/12 10:34:47;;;;;;;3.92;2.92;;;23.80;99.90;;;;;;5030950;28;20029;-76
2021/07/12 10:37:34;;;;;;;2.97;2.67;;;23.90;99.90;;;;;;5031329;28;20029;-76
2021/07/12 10:40:09;;;;;;;;;;;24.10;99.90;;;;;;5031646;28;20021;-76
2021/07/12 10:42:41;;;;;;;2.90;2.70;;;24.00;99.90;;;;;;5030007;28;19943;-76
2021/07/12 10:45:43;;;;;;;2.50;2.30;;;23.80;99.90;;;;;;5031268;28;20087;-76
2021/07/12 10:48:12;;;;;;;3.42;2.83;;;23.60;99.90;;;;;;5030551;28;20515;-76
2021/07/12 10:50:45;;;;;;;2.40;2.20;;;24.00;99.90;;;;;;5034739;28;20075;-76
2021/07/12 10:53:22;;;;;;;2.53;2.30;;;24.10;99.90;;;;;;5034561;28;20535;-76
2021/07/12 10:56:13;;;;;;;4.18;2.40;;;24.10;99.90;;;;;;5033043;28;20430;-76
2021/07/12 10:58:40;;;;;;;2.63;1.98;;;24.30;99.90;;;;;;5032996;28;20025;-76
2021/07/12 11:01:07;;;;;;;2.20;2.10;;;24.30;99.90;;;;;;5034439;28;20022;-76
2021/07/12 11:03:36;;;;;;;2.28;2.03;;;24.20;99.90;;;;;;5033016;28;20035;-77
2021/07/12 11:06:10;;;;;;;2.17;1.98;;;24.20;99.90;;;;;;5034329;28;20104;-77
2021/07/12 11:08:47;;;;;;;4.20;1.90;;;24.60;99.90;;;;;;5035304;28;20021;-77
2021/07/12 11:11:38;;;;;;;1.80;1.70;;;24.40;99.90;;;;;;5047694;28;20030;-77
2021/07/12 11:14:08;;;;;;;2.60;2.40;;;24.70;99.90;;;;;;5032980;28;20029;-77
2021/07/12 11:16:45;;;;;;;2.55;2.33;;;24.80;99.90;;;;;;5034045;28;20109;-77
2021/07/12 11:19:24;;;;;;;2.28;2.08;;;24.80;99.90;;;;;;5034262;28;20071;-77
2021/07/12 11:21:51;;;;;;;5.68;4.18;;;24.50;99.90;;;;;;5034262;28;20044;-77
2021/07/12 11:24:20;;;;;;;3.58;2.63;;;24.10;99.90;;;;;;5034181;28;20033;-77
2021/07/12 11:26:48;;;;;;;3.30;2.55;;;24.40;99.90;;;;;;5033975;28;20395;-77
2021/07/12 11:29:19;;;;;;;2.50;2.30;;;24.50;99.90;;;;;;5034030;28;20025;-77
2021/07/12 11:31:50;;;;;;;2.58;2.30;;;24.70;99.90;;;;;;5032511;28;20029;-77
2021/07/12 11:34:32;;;;;;;2.67;2.47;;;25.00;99.90;;;;;;5032711;28;20376;-77
2021/07/12 11:37:06;;;;;;;2.83;2.60;;;25.00;99.90;;;;;;5033779;28;20022;-77
2021/07/12 11:39:34;;;;;;;2.80;2.60;;;24.90;99.90;;;;;;5033883;28;20400;-77
2021/07/12 11:42:14;;;;;;;2.60;2.40;;;24.50;99.90;;;;;;5033627;28;20108;-76
2021/07/12 11:44:47;;;;;;;3.15;2.42;;;24.80;99.90;;;;;;5033207;28;20032;-76
2021/07/12 11:47:24;;;;;;;2.95;2.10;;;25.50;99.90;;;;;;5031380;28;20030;-77
2021/07/12 11:49:54;;;;;;;2.83;2.63;;;25.40;99.90;;;;;;5031991;28;20124;-77
2021/07/12 11:52:20;;;;;;;2.55;2.35;;;25.70;99.90;;;;;;5033324;28;20090;-77
2021/07/12 11:54:46;;;;;;;2.40;2.20;;;26.00;99.90;;;;;;5033354;28;20021;-77
2021/07/12 11:57:14;;;;;;;3.45;2.30;;;26.20;99.90;;;;;;5033396;28;20022;-78
2021/07/12 11:59:41;;;;;;;2.60;2.40;;;26.30;99.90;;;;;;5033080;28;20510;-77
2021/07/12 12:02:12;;;;;;;2.63;2.30;;;26.20;99.90;;;;;;5033317;28;20090;-77
2021/07/12 12:04:46;;;;;;;2.78;2.20;;;26.60;99.90;;;;;;5033158;28;20128;-77
2021/07/12 12:07:31;;;;;;;2.65;2.45;;;26.50;99.90;;;;;;5032073;28;20083;-76
2021/07/12 12:10:08;;;;;;;2.33;2.13;;;26.60;99.90;;;;;;5013672;28;20029;-76
2021/07/12 12:12:38;;;;;;;2.53;2.13;;;26.60;99.90;;;;;;5013207;28;20561;-76
2021/07/12 12:15:23;;;;;;;2.75;2.13;;;26.80;99.90;;;;;;5013390;28;20113;-76
2021/07/12 12:18:05;;;;;;;2.42;2.20;;;26.70;99.90;;;;;;5032071;28;20410;-76
2021/07/12 12:20:34;;;;;;;2.33;2.13;;;26.30;99.90;;;;;;5033093;28;20030;-76
2021/07/12 12:23:09;;;;;;;4.05;2.30;;;26.40;99.90;;;;;;5033142;28;20021;-76
2021/07/12 12:26:01;;;;;;;2.80;2.20;;;26.50;99.90;;;;;;5032871;28;20025;-76
2021/07/12 12:28:44;;;;;;;3.13;2.50;;;26.80;99.90;;;;;;5032990;28;20057;-77
2021/07/12 12:31:18;;;;;;;5.05;2.63;;;26.80;99.90;;;;;;5033058;28;20029;-76
2021/07/12 12:34:08;;;;;;;2.50;2.30;;;26.40;99.90;;;;;;5032848;28;20480;-76
2021/07/12 12:36:38;;;;;;;2.97;2.67;;;27.00;99.90;;;;;;5032755;28;20108;-76
2021/07/12 12:39:08;;;;;;;2.50;2.30;;;27.40;99.90;;;;;;5033126;28;20048;-76
2021/07/12 12:41:47;;;;;;;2.35;2.08;;;27.10;99.90;;;;;;5033048;28;20024;-76
2021/07/12 12:44:15;;;;;;;2.42;2.22;;;27.00;99.90;;;;;;5032765;28;20026;-77
2021/07/12 12:46:51;;;;;;;2.53;2.33;;;26.50;99.90;;;;;;5031298;28;20159;-77
2021/07/12 12:49:29;;;;;;;2.65;2.45;;;27.10;99.90;;;;;;5032595;28;20017;-77
2021/07/12 12:52:21;;;;;;;2.58;2.38;;;27.60;99.90;;;;;;5031222;28;20025;-76
2021/07/12 12:54:49;;;;;;;2.90;2.70;;;27.30;99.90;;;;;;5031217;28;20523;-76
2021/07/12 12:57:16;;;;;;;2.63;2.38;;;27.40;99.90;;;;;;5030988;28;20056;-76
2021/07/12 12:59:46;;;;;;;5.43;2.80;;;28.20;99.90;;;;;;5032341;28;20017;-76